首页
METAR-TAF:

METAR-TAF

机场 :

里加国际机场

里加, 拉脱维亚

纬度: 56-55N, 经度: 023-58E, 海拔: 10米

当前天气观测

该预报发布于20分钟前的11:20 UTC
风速4节,风向南转西南
温度 -3°C
湿度 86%
气压 1018 hPa
能见度10公里或以上
1500米以下无云,无积雨云

METAR: EVRA 241120Z 20004KT CAVOK M03/M05 Q1018 R18/490295 NOSIG

时间: 13:40 (11:40 UTC)

预报

该预报发布于37分钟前的11:03 UTC
预报有效从24日的 12点(UTC)到 25日的 12点(UTC)
风速5节,风向
能见度10公里或以上
散云层高于2000英尺
阴天层高于4000英尺
短暂存在
从 24日的 15点(UTC)到 24日的 21点(UTC)
多云层高于1000英尺
阴天层高于3000英尺
短暂存在
从 24日的 21点(UTC)到 25日的 03点(UTC)
能見度: 4000
多云层高于500英尺
阴天层高于3000英尺
轻雾
短暂存在
从 25日的 03点(UTC)到 25日的 09点(UTC)
多云层高于1000英尺
阴天层高于3000英尺
成为
从 25日的 09点(UTC)到 25日的 11点(UTC)
风速7节,风向东南

TAF: EVRA 241103Z 2412/2512 18005KT 9999 SCT020 OVC040 TEMPO 2415/2421 BKN010 OVC030 TEMPO 2421/2503 4000 BR BKN005 OVC030 TEMPO 2503/2509 BKN010 OVC030 BECMG 2509/2511 14007KT

超过4000个机场的气象观测和天气预报(METAR&TAF报告)。

可查询的气象台以黄色和红色小点在地图上表示。

将鼠标移到小点上方,可查看气象台名称。

然后点击查看天气观测和预报。

如需切换地图:点击带黑十字的绿色按钮放大地图;点击带横线的绿色按钮缩小地图;或者点击绿色箭头查看邻近地区的地图。


METAR-TAF: